This is the latest recevied weather packets stored in our database for station/object LU8FJH-13. If no packets are shown the sender has not sent any weather packets the latest 1 day(s).
| Time | Temp. | Humidity | Pressure | Rain* | Wind** | Luminosity | Snow |
|---|---|---|---|---|---|---|---|
| 1836274417 | 21.67° C | 76% | 1013.7 hPa | 0 mm | 1.34 m/s, 35° | - | - |
| 1836274207 | 21.67° C | 77% | 1013.8 hPa | 0 mm | 1.79 m/s, 19° | - | - |
| 1836273876 | 21.67° C | 76% | 1013.7 hPa | 0 mm | 2.24 m/s, 22° | - | - |
| 1778054641 | 21.11° C | 94% | 1008.8 hPa | 0 mm | 0.45 m/s, 34° | - | - |
| 1778054101 | 21.11° C | 93% | 1008.8 hPa | 0 mm | 0.89 m/s, 28° | - | - |
| 1778053561 | 21.11° C | 93% | 1009 hPa | 0 mm | 0.45 m/s, 32° | - | - |
| 1778053021 | 21.11° C | 93% | 1009.2 hPa | 0 mm | 0.89 m/s, 24° | - | - |
| 1778052481 | 21.11° C | 93% | 1009.3 hPa | 0 mm | 0.45 m/s, 37° | - | - |
| 1778051941 | 21.11° C | 93% | 1009 hPa | 0.51 mm | 0.89 m/s, 30° | - | - |
| 1778051401 | 21.11° C | 93% | 1009.2 hPa | 0.51 mm | 0 m/s | - | - |
| 1778050861 | 21.11° C | 93% | 1009.4 hPa | 0.51 mm | 0 m/s | - | - |
| 1778050321 | 21.11° C | 93% | 1009.6 hPa | 0.51 mm | 0 m/s | - | - |
| 1778049781 | 21.11° C | 92% | 1009.3 hPa | 0.51 mm | 0.89 m/s, 25° | - | - |
| 1778049241 | 21.11° C | 93% | 1009.4 hPa | 0.51 mm | 0.45 m/s, 28° | - | - |
| 1778048701 | 21.11° C | 92% | 1009.6 hPa | 0.25 mm | 0 m/s | - | - |
| 1778048161 | 21.11° C | 93% | 1009.8 hPa | 0 mm | 1.34 m/s, 35° | - | - |
| 1778047621 | 20.56° C | 92% | 1009.8 hPa | 0 mm | 0.89 m/s, 23° | - | - |
| 1778047081 | 21.11° C | 92% | 1009.9 hPa | 0 mm | 0.89 m/s, 23° | - | - |
| 1778046541 | 21.11° C | 92% | 1010 hPa | 0 mm | 0.89 m/s, 25° | - | - |
| 1778046001 | 21.11° C | 91% | 1009.9 hPa | 0 mm | 0.45 m/s, 9° | - | - |
| 1778045461 | 21.11° C | 91% | 1010.1 hPa | 0 mm | 0.89 m/s, 36° | - | - |
| 1778044921 | 21.11° C | 91% | 1010.1 hPa | 0 mm | 0.89 m/s, 27° | - | - |
| 1778044381 | 21.11° C | 91% | 1010.2 hPa | 0 mm | 0.89 m/s, 17° | - | - |
| 1778043841 | 21.11° C | 91% | 1010.5 hPa | 0 mm | 0.89 m/s, 14° | - | - |
| 1778043301 | 21.11° C | 91% | 1010.2 hPa | 0 mm | 0.89 m/s, 39° | - | - |
* Rain latest hour (hover to see other rain measurements)
** Current wind speed in m/s (hover to see current wind gust speed)